createdAt,value
2018-12-16T00:00:24.752Z,0
2018-12-16T00:01:34.818Z,0
2018-12-16T00:02:44.652Z,0
2018-12-16T00:03:54.746Z,0
2018-12-16T00:05:04.818Z,0
2018-12-16T00:06:15.237Z,0
2018-12-16T00:07:25.528Z,0
2018-12-16T00:08:35.356Z,0
2018-12-16T00:09:45.454Z,0
2018-12-16T00:10:55.526Z,0
2018-12-16T00:12:05.360Z,0
2018-12-16T00:13:15.424Z,0
2018-12-16T00:14:25.486Z,0
2018-12-16T00:15:35.548Z,0
2018-12-16T00:16:45.663Z,0
2018-12-16T00:17:55.922Z,0
2018-12-16T00:19:05.474Z,0
2018-12-16T00:20:15.568Z,0
2018-12-16T00:21:25.748Z,0
2018-12-16T00:22:39.573Z,0
2018-12-16T00:23:49.685Z,0
2018-12-16T00:24:59.243Z,0
2018-12-16T00:26:09.289Z,0
2018-12-16T00:27:19.371Z,0
2018-12-16T00:28:29.276Z,0
2018-12-16T00:29:39.100Z,0
2018-12-16T00:30:49.142Z,0
2018-12-16T00:31:59.211Z,0
2018-12-16T00:33:09.344Z,0
2018-12-16T00:34:19.514Z,0
2018-12-16T00:35:29.368Z,0
2018-12-16T00:36:38.917Z,0
2018-12-16T00:37:48.991Z,0
2018-12-16T00:38:59.047Z,0
2018-12-16T00:40:10.452Z,0
2018-12-16T00:41:20.358Z,0
2018-12-16T00:42:30.432Z,0
2018-12-16T00:43:40.499Z,0
2018-12-16T00:44:50.601Z,0
2018-12-16T00:46:00.424Z,0
2018-12-16T00:47:10.647Z,0
2018-12-16T00:48:20.707Z,0
2018-12-16T00:49:30.513Z,0
2018-12-16T00:50:40.567Z,0
2018-12-16T00:51:50.632Z,0
2018-12-16T00:53:00.434Z,0
2018-12-16T00:54:10.484Z,0
2018-12-16T00:55:20.081Z,0
2018-12-16T00:56:30.144Z,0
2018-12-16T00:57:39.920Z,0
2018-12-16T00:58:49.986Z,0
2018-12-16T01:00:00.051Z,0
2018-12-16T01:01:10.107Z,0
2018-12-16T01:02:20.160Z,0
2018-12-16T01:03:30.228Z,0
2018-12-16T01:04:39.842Z,0
2018-12-16T01:05:49.624Z,0
2018-12-16T01:06:59.920Z,0
2018-12-16T01:08:09.813Z,0
2018-12-16T01:09:19.888Z,0
2018-12-16T01:10:29.950Z,0
2018-12-16T01:11:39.758Z,0
2018-12-16T01:12:49.840Z,0
2018-12-16T01:13:59.925Z,0
2018-12-16T01:15:12.337Z,0
2018-12-16T01:16:22.254Z,0
2018-12-16T01:17:32.307Z,0
2018-12-16T01:18:42.361Z,0
2018-12-16T01:19:52.424Z,0
2018-12-16T01:21:02.485Z,0
2018-12-16T01:22:12.608Z,0
2018-12-16T01:23:22.657Z,0
2018-12-16T01:24:32.458Z,0
2018-12-16T01:25:42.517Z,0
2018-12-16T01:26:52.574Z,0
2018-12-16T01:28:03.774Z,0
2018-12-16T01:29:13.817Z,0
2018-12-16T01:30:24.206Z,0
2018-12-16T01:31:34.510Z,0
2018-12-16T01:32:44.554Z,0
2018-12-16T01:33:54.419Z,0
2018-12-16T01:35:05.461Z,0
2018-12-16T01:36:15.521Z,0
2018-12-16T01:37:25.590Z,0
2018-12-16T01:38:35.390Z,0
2018-12-16T01:39:45.197Z,0
2018-12-16T01:40:55.265Z,0
2018-12-16T01:42:05.320Z,0
2018-12-16T01:43:15.399Z,0
2018-12-16T01:44:25.450Z,0
2018-12-16T01:45:35.578Z,0
2018-12-16T01:46:45.643Z,0
2018-12-16T01:47:55.711Z,0
2018-12-16T01:49:07.769Z,0
2018-12-16T01:50:17.879Z,0
2018-12-16T01:51:27.991Z,0
2018-12-16T01:52:37.819Z,0
2018-12-16T01:53:47.909Z,0
2018-12-16T01:54:57.708Z,0
2018-12-16T01:56:07.618Z,0
2018-12-16T01:57:17.735Z,0
2018-12-16T01:58:27.794Z,0
2018-12-16T01:59:37.863Z,0
2018-12-16T02:00:47.790Z,0
2018-12-16T02:01:57.716Z,0
2018-12-16T02:03:07.799Z,0
2018-12-16T02:04:18.338Z,0
2018-12-16T02:05:28.141Z,0
2018-12-16T02:06:38.195Z,0
2018-12-16T02:07:48.283Z,0
2018-12-16T02:08:58.083Z,0
2018-12-16T02:10:08.907Z,0
2018-12-16T02:11:18.703Z,0
2018-12-16T02:12:28.741Z,0
2018-12-16T02:13:38.551Z,0
2018-12-16T02:14:48.650Z,0
2018-12-16T02:15:58.557Z,0
2018-12-16T02:17:08.626Z,0
2018-12-16T02:18:18.715Z,0
2018-12-16T02:19:28.775Z,0
2018-12-16T02:20:38.845Z,0
2018-12-16T02:21:48.918Z,0
2018-12-16T02:23:04.241Z,0
2018-12-16T02:24:14.034Z,0
2018-12-16T02:25:23.844Z,0
2018-12-16T02:26:33.657Z,0
2018-12-16T02:27:43.700Z,0
2018-12-16T02:28:53.761Z,0
2018-12-16T02:30:05.621Z,0
2018-12-16T02:31:15.919Z,0
2018-12-16T02:32:26.258Z,0
2018-12-16T02:33:36.278Z,0
2018-12-16T02:34:46.353Z,0
2018-12-16T02:35:56.145Z,0
2018-12-16T02:37:06.477Z,0
2018-12-16T02:38:16.345Z,0
2018-12-16T02:39:26.149Z,0
2018-12-16T02:40:36.220Z,0
2018-12-16T02:41:46.261Z,0
2018-12-16T02:42:56.343Z,0
2018-12-16T02:44:06.720Z,0
2018-12-16T02:45:16.815Z,0
2018-12-16T02:46:26.630Z,0
2018-12-16T02:47:36.703Z,0
2018-12-16T02:48:46.794Z,0
2018-12-16T02:49:56.903Z,0
2018-12-16T02:51:06.459Z,0
2018-12-16T02:52:16.528Z,0
2018-12-16T02:53:26.582Z,0
2018-12-16T02:54:36.142Z,0
2018-12-16T02:55:45.994Z,0
2018-12-16T02:56:56.081Z,0
2018-12-16T02:58:06.431Z,0
2018-12-16T02:59:17.106Z,0
2018-12-16T03:00:27.497Z,0
2018-12-16T03:01:37.648Z,0
2018-12-16T03:02:47.713Z,0
2018-12-16T03:35:07.773Z,0
2018-12-16T03:36:17.837Z,0
2018-12-16T03:37:27.913Z,0
2018-12-16T03:38:37.964Z,0
2018-12-16T03:39:48.080Z,0
2018-12-16T03:40:58.183Z,0
2018-12-16T03:42:08.240Z,0
2018-12-16T03:43:18.036Z,0
2018-12-16T03:44:28.102Z,0
2018-12-16T03:45:38.151Z,0
2018-12-16T03:46:48.072Z,0
2018-12-16T03:47:58.191Z,0
2018-12-16T03:49:09.907Z,0
2018-12-16T03:50:19.695Z,0
2018-12-16T03:51:29.770Z,0
2018-12-16T03:52:40.143Z,0
2018-12-16T03:53:50.149Z,0
2018-12-16T03:55:00.349Z,0
2018-12-16T03:56:10.422Z,0
2018-12-16T03:57:20.509Z,0
2018-12-16T03:58:30.613Z,0
2018-12-16T03:59:40.658Z,0
2018-12-16T04:00:50.733Z,0
2018-12-16T04:02:00.562Z,0
2018-12-16T04:03:10.657Z,0
2018-12-16T04:04:20.781Z,0
2018-12-16T04:07:54.081Z,0
2018-12-16T04:09:04.142Z,0
2018-12-16T04:10:14.231Z,0
2018-12-16T04:11:23.770Z,0
2018-12-16T04:12:33.950Z,0
2018-12-16T04:13:44.025Z,0
2018-12-16T04:14:54.071Z,0
2018-12-16T04:16:05.327Z,0
2018-12-16T04:17:15.112Z,0
2018-12-16T04:18:24.680Z,0
2018-12-16T04:19:34.732Z,0
2018-12-16T04:20:45.243Z,0
2018-12-16T04:21:55.344Z,0
2018-12-16T04:23:05.415Z,0
2018-12-16T04:24:15.269Z,0
2018-12-16T04:25:25.084Z,0
2018-12-16T04:26:34.902Z,0
2018-12-16T04:27:44.722Z,0
2018-12-16T04:28:54.868Z,0
2018-12-16T04:30:05.578Z,0
2018-12-16T04:31:15.710Z,0
2018-12-16T04:32:25.525Z,0
2018-12-16T04:33:35.639Z,0
2018-12-16T04:34:45.685Z,0
2018-12-16T04:35:55.802Z,0
2018-12-16T04:37:05.862Z,0
2018-12-16T04:38:15.909Z,0
2018-12-16T04:39:26.015Z,0
2018-12-16T04:40:35.839Z,0
2018-12-16T04:41:45.894Z,0
2018-12-16T04:42:55.966Z,0
2018-12-16T04:44:07.232Z,0
2018-12-16T04:45:17.465Z,0
2018-12-16T04:46:27.560Z,0
2018-12-16T04:47:37.807Z,0
2018-12-16T04:48:47.621Z,0
2018-12-16T04:49:57.403Z,0
2018-12-16T04:51:07.471Z,0
2018-12-16T04:52:17.541Z,0
2018-12-16T04:53:34.823Z,0
2018-12-16T04:54:45.037Z,0
2018-12-16T04:55:55.120Z,0
2018-12-16T04:57:04.919Z,0
2018-12-16T04:58:14.982Z,0
2018-12-16T04:59:25.030Z,0
2018-12-16T05:00:34.838Z,0
2018-12-16T05:01:44.664Z,0
2018-12-16T05:02:54.530Z,0
2018-12-16T05:04:04.329Z,0
2018-12-16T05:05:14.124Z,0
2018-12-16T05:06:25.002Z,0
2018-12-16T05:07:35.047Z,0
2018-12-16T05:08:45.229Z,0
2018-12-16T05:09:55.301Z,0
2018-12-16T05:11:07.749Z,0
2018-12-16T05:12:17.820Z,0
2018-12-16T05:13:27.877Z,0
2018-12-16T05:14:37.682Z,0
2018-12-16T05:15:48.068Z,0
2018-12-16T05:16:57.920Z,0
2018-12-16T05:18:09.880Z,0
2018-12-16T05:19:19.943Z,0
2018-12-16T05:20:29.510Z,0
2018-12-16T05:21:39.565Z,0
2018-12-16T05:22:49.605Z,0
2018-12-16T05:23:59.397Z,0
2018-12-16T05:25:09.175Z,0
2018-12-16T05:26:19.339Z,0
2018-12-16T05:27:29.151Z,0
2018-12-16T05:28:39.408Z,0
2018-12-16T05:29:49.448Z,0
2018-12-16T05:30:59.508Z,0
2018-12-16T05:32:09.556Z,0
2018-12-16T05:33:19.372Z,0
2018-12-16T05:34:29.444Z,0
2018-12-16T05:35:39.506Z,0
2018-12-16T05:36:49.306Z,0
2018-12-16T05:37:59.376Z,0
2018-12-16T05:39:09.448Z,0
2018-12-16T05:40:19.487Z,0
2018-12-16T05:41:29.551Z,0
2018-12-16T05:42:39.343Z,0
2018-12-16T05:43:49.394Z,0
2018-12-16T05:44:59.457Z,0
2018-12-16T05:46:09.682Z,0
2018-12-16T05:47:19.752Z,0
2018-12-16T05:48:30.054Z,0
2018-12-16T05:49:39.842Z,0
2018-12-16T05:50:49.640Z,0
2018-12-16T05:51:59.687Z,0
2018-12-16T05:53:10.796Z,0
2018-12-16T05:54:20.864Z,0
2018-12-16T05:55:30.435Z,0
2018-12-16T05:56:40.478Z,0
2018-12-16T05:57:50.601Z,0
2018-12-16T05:59:02.258Z,0
2018-12-16T06:00:12.419Z,0
2018-12-16T06:01:22.497Z,0
2018-12-16T06:02:32.572Z,0
2018-12-16T06:03:42.634Z,0
2018-12-16T06:04:52.736Z,0
2018-12-16T06:06:02.528Z,0
2018-12-16T06:07:12.343Z,0
2018-12-16T06:08:22.444Z,0
2018-12-16T06:09:32.514Z,0
2018-12-16T06:10:42.572Z,0
2018-12-16T06:11:53.273Z,0
2018-12-16T06:13:03.326Z,0
2018-12-16T06:14:13.377Z,0
2018-12-16T06:15:23.171Z,0
2018-12-16T06:16:33.240Z,0
2018-12-16T06:17:43.295Z,0
2018-12-16T06:18:53.111Z,0
2018-12-16T06:20:04.195Z,0
2018-12-16T06:21:14.363Z,0
2018-12-16T06:22:24.148Z,0
2018-12-16T06:23:34.197Z,0
2018-12-16T06:24:44.243Z,0
2018-12-16T06:25:54.041Z,0
2018-12-16T06:27:04.147Z,0
2018-12-16T06:28:14.206Z,0
2018-12-16T06:29:24.248Z,0
2018-12-16T06:30:34.300Z,0
2018-12-16T06:31:44.423Z,0
2018-12-16T06:32:54.579Z,0
2018-12-16T06:34:04.646Z,0
2018-12-16T06:35:14.712Z,0
2018-12-16T06:36:24.543Z,0
2018-12-16T06:37:34.645Z,0
2018-12-16T06:38:44.704Z,0
2018-12-16T06:39:54.509Z,0
2018-12-16T06:41:04.548Z,0
2018-12-16T06:42:14.594Z,0
2018-12-16T06:43:24.650Z,0
2018-12-16T06:44:34.758Z,0
2018-12-16T06:45:44.827Z,0
2018-12-16T06:46:54.639Z,0
2018-12-16T06:48:04.645Z,5
2018-12-16T06:49:14.698Z,5
2018-12-16T06:50:24.235Z,5
2018-12-16T06:51:34.062Z,5
2018-12-16T06:52:44.121Z,5
2018-12-16T06:53:54.222Z,5
2018-12-16T06:55:04.287Z,5
2018-12-16T06:56:16.423Z,5
2018-12-16T06:57:26.487Z,5
2018-12-16T06:58:36.275Z,5
2018-12-16T06:59:46.351Z,5
2018-12-16T07:00:56.421Z,10
2018-12-16T07:02:06.510Z,10
2018-12-16T07:03:16.583Z,10
2018-12-16T07:04:26.450Z,10
2018-12-16T07:05:36.497Z,10
2018-12-16T07:06:46.319Z,10
2018-12-16T07:07:56.428Z,10
2018-12-16T07:09:06.499Z,10
2018-12-16T07:10:16.554Z,15
2018-12-16T07:11:26.691Z,15
2018-12-16T07:12:36.553Z,15
2018-12-16T07:13:46.907Z,15
2018-12-16T07:14:56.701Z,15
2018-12-16T07:16:06.809Z,15
2018-12-16T07:17:16.885Z,15
2018-12-16T07:18:27.049Z,15
2018-12-16T07:19:37.185Z,15
2018-12-16T07:20:47.234Z,20
2018-12-16T07:21:57.319Z,20
2018-12-16T07:23:07.431Z,20
2018-12-16T07:24:19.108Z,20
2018-12-16T07:25:29.224Z,20
2018-12-16T07:26:39.349Z,25
2018-12-16T07:27:49.514Z,25
2018-12-16T07:28:59.663Z,25
2018-12-16T07:30:09.747Z,25
2018-12-16T07:31:19.884Z,25
2018-12-16T07:32:29.940Z,25
2018-12-16T07:33:40.066Z,30
2018-12-16T07:34:49.876Z,30
2018-12-16T07:36:00.028Z,30
2018-12-16T07:37:10.172Z,30
2018-12-16T07:38:20.278Z,30
2018-12-16T07:39:30.747Z,30
2018-12-16T07:40:40.843Z,30
2018-12-16T07:41:51.226Z,35
2018-12-16T07:43:01.172Z,35
2018-12-16T07:44:11.044Z,35
2018-12-16T07:45:20.968Z,35
2018-12-16T07:46:30.770Z,40
2018-12-16T07:47:40.895Z,40
2018-12-16T07:48:51.110Z,40
2018-12-16T07:50:01.917Z,40
2018-12-16T07:51:12.047Z,45
2018-12-16T07:52:22.100Z,45
2018-12-16T07:53:31.954Z,45
2018-12-16T07:54:42.079Z,50
2018-12-16T07:55:51.731Z,50
2018-12-16T07:57:01.598Z,50
2018-12-16T07:58:12.088Z,50
2018-12-16T07:59:22.180Z,50
2018-12-16T08:00:32.067Z,50
2018-12-16T08:01:42.232Z,55
2018-12-16T08:02:52.308Z,55
2018-12-16T08:04:02.497Z,55
2018-12-16T08:05:14.027Z,60
2018-12-16T08:06:24.167Z,60
2018-12-16T08:07:33.727Z,65
2018-12-16T08:08:43.616Z,65
2018-12-16T08:09:53.793Z,70
2018-12-16T08:11:03.592Z,70
2018-12-16T08:12:13.858Z,75
2018-12-16T08:13:23.932Z,75
2018-12-16T08:14:33.994Z,75
2018-12-16T08:15:44.059Z,75
2018-12-16T08:16:54.116Z,75
2018-12-16T08:18:05.331Z,80
2018-12-16T08:19:16.576Z,80
2018-12-16T08:20:26.382Z,80
2018-12-16T08:21:36.467Z,80
2018-12-16T08:22:46.520Z,80
2018-12-16T08:23:56.573Z,85
2018-12-16T08:25:06.687Z,85
2018-12-16T08:26:16.492Z,85
2018-12-16T08:27:26.553Z,90
2018-12-16T08:28:36.663Z,85
2018-12-16T08:29:46.571Z,85
2018-12-16T08:30:56.631Z,85
2018-12-16T08:32:06.486Z,85
2018-12-16T08:33:16.577Z,85
2018-12-16T08:34:27.476Z,90
2018-12-16T08:35:37.552Z,90
2018-12-16T08:36:47.106Z,95
2018-12-16T08:37:57.166Z,95
2018-12-16T08:39:08.043Z,95
2018-12-16T08:40:18.125Z,95
2018-12-16T08:41:28.415Z,95
2018-12-16T08:42:38.487Z,95
2018-12-16T08:43:48.588Z,100
2018-12-16T08:44:58.676Z,95
2018-12-16T08:46:08.837Z,95
2018-12-16T08:47:18.643Z,95
2018-12-16T08:48:28.711Z,95
2018-12-16T08:49:38.798Z,95
2018-12-16T08:50:49.113Z,95
2018-12-16T08:51:59.234Z,95
2018-12-16T08:53:09.354Z,95
2018-12-16T08:54:19.200Z,95
2018-12-16T08:55:29.010Z,100
2018-12-16T08:56:39.077Z,95
2018-12-16T08:57:49.228Z,100
2018-12-16T08:58:59.317Z,95
2018-12-16T09:00:09.175Z,100
2018-12-16T09:01:18.986Z,100
2018-12-16T09:02:29.068Z,100
2018-12-16T09:03:39.395Z,105
2018-12-16T09:04:49.268Z,110
2018-12-16T09:05:59.369Z,110
2018-12-16T09:07:09.422Z,110
2018-12-16T09:08:19.512Z,115
2018-12-16T09:09:29.618Z,120
2018-12-16T09:10:43.889Z,115
2018-12-16T09:11:53.959Z,120
2018-12-16T09:13:04.064Z,120
2018-12-16T09:14:14.142Z,125
2018-12-16T09:15:24.019Z,125
2018-12-16T09:16:34.086Z,130
2018-12-16T09:17:44.168Z,145
2018-12-16T09:18:54.247Z,135
2018-12-16T09:20:05.894Z,135
2018-12-16T09:21:15.990Z,140
2018-12-16T09:22:26.059Z,155
2018-12-16T09:23:36.153Z,165
2018-12-16T09:24:47.126Z,155
2018-12-16T09:25:56.968Z,155
2018-12-16T09:27:06.788Z,150
2018-12-16T09:28:16.949Z,160
2018-12-16T09:29:26.849Z,150
2018-12-16T09:30:36.939Z,145
2018-12-16T09:31:47.017Z,140
2018-12-16T09:32:57.105Z,135
2018-12-16T09:34:07.157Z,135
2018-12-16T09:35:17.481Z,155
2018-12-16T09:36:27.614Z,175
2018-12-16T09:37:37.748Z,175
2018-12-16T09:38:47.598Z,155
2018-12-16T09:39:57.656Z,145
2018-12-16T09:41:07.269Z,145
2018-12-16T09:42:17.552Z,145
2018-12-16T09:43:27.719Z,145
2018-12-16T09:44:37.777Z,145
2018-12-16T09:45:54.479Z,145
2018-12-16T09:47:04.532Z,150
2018-12-16T09:48:14.410Z,175
2018-12-16T09:49:24.288Z,180
2018-12-16T09:50:34.361Z,190
2018-12-16T09:51:44.453Z,195
2018-12-16T09:52:54.493Z,190
2018-12-16T09:54:04.747Z,195
2018-12-16T09:55:14.886Z,200
2018-12-16T09:56:25.025Z,195
2018-12-16T09:57:36.187Z,190
2018-12-16T09:58:46.344Z,185
2018-12-16T09:59:56.433Z,180
2018-12-16T10:01:06.506Z,170
2018-12-16T10:02:16.330Z,140
2018-12-16T10:03:26.404Z,120
2018-12-16T10:04:36.531Z,160
2018-12-16T10:05:47.245Z,140
2018-12-16T10:06:57.373Z,175
2018-12-16T10:08:07.504Z,130
2018-12-16T10:09:19.395Z,140
2018-12-16T10:10:29.645Z,160
2018-12-16T10:11:39.486Z,135
2018-12-16T10:12:49.537Z,140
2018-12-16T10:13:59.629Z,145
2018-12-16T10:15:09.716Z,155
2018-12-16T10:16:19.803Z,155
2018-12-16T10:17:29.888Z,155
2018-12-16T10:18:40.085Z,155
2018-12-16T10:19:50.164Z,155
2018-12-16T10:21:01.324Z,160
2018-12-16T10:22:11.410Z,155
2018-12-16T10:23:21.496Z,150
2018-12-16T10:24:31.643Z,150
2018-12-16T10:25:41.740Z,150
2018-12-16T10:26:53.056Z,160
2018-12-16T10:28:03.146Z,165
2018-12-16T10:29:12.730Z,175
2018-12-16T10:30:22.823Z,225
2018-12-16T10:31:34.705Z,180
2018-12-16T10:32:44.792Z,210
2018-12-16T10:33:54.853Z,185
2018-12-16T10:35:04.951Z,170
2018-12-16T10:36:15.020Z,200
2018-12-16T10:37:25.089Z,170
2018-12-16T10:38:35.294Z,150
2018-12-16T10:39:45.373Z,155
2018-12-16T10:40:55.547Z,145
2018-12-16T10:42:05.372Z,145
2018-12-16T10:43:15.476Z,145
2018-12-16T10:44:25.585Z,155
2018-12-16T10:45:35.665Z,165
2018-12-16T10:46:45.742Z,165
2018-12-16T10:47:55.873Z,165
2018-12-16T10:49:12.098Z,160
2018-12-16T10:50:21.945Z,160
2018-12-16T10:51:31.800Z,160
2018-12-16T10:52:41.881Z,155
2018-12-16T10:53:52.017Z,145
2018-12-16T10:55:10.539Z,140
2018-12-16T10:56:20.626Z,140
2018-12-16T10:57:30.725Z,140
2018-12-16T10:58:40.848Z,140
2018-12-16T10:59:50.969Z,140
2018-12-16T11:01:01.105Z,135
2018-12-16T11:02:11.207Z,135
2018-12-16T11:03:21.286Z,135
2018-12-16T11:04:31.426Z,135
2018-12-16T11:05:41.536Z,135
2018-12-16T11:06:51.628Z,135
2018-12-16T11:08:02.874Z,135
2018-12-16T11:09:13.119Z,135
2018-12-16T11:10:23.292Z,135
2018-12-16T11:11:33.152Z,135
2018-12-16T11:12:43.029Z,135
2018-12-16T11:13:53.121Z,135
2018-12-16T11:15:05.203Z,140
2018-12-16T11:16:15.516Z,140
2018-12-16T11:17:25.691Z,140
2018-12-16T11:18:35.531Z,140
2018-12-16T11:19:45.685Z,145
2018-12-16T11:20:55.554Z,145
2018-12-16T11:22:07.385Z,145
2018-12-16T11:23:17.535Z,150
2018-12-16T11:24:27.684Z,155
2018-12-16T11:25:37.789Z,155
2018-12-16T11:26:47.892Z,160
2018-12-16T11:27:57.979Z,165
2018-12-16T11:29:07.791Z,165
2018-12-16T11:30:17.855Z,170
2018-12-16T11:31:27.949Z,160
2018-12-16T11:32:38.771Z,215
2018-12-16T11:33:48.862Z,210
2018-12-16T11:34:58.791Z,215
2018-12-16T11:36:08.869Z,205
2018-12-16T11:37:19.041Z,195
2018-12-16T11:38:29.152Z,150
2018-12-16T11:39:39.233Z,190
2018-12-16T11:40:49.622Z,175
2018-12-16T11:41:59.770Z,155
2018-12-16T11:43:10.028Z,140
2018-12-16T11:44:20.128Z,135
2018-12-16T11:45:30.215Z,135
2018-12-16T11:46:40.332Z,140
2018-12-16T11:47:50.431Z,140
2018-12-16T11:49:00.498Z,140
2018-12-16T11:50:10.670Z,130
2018-12-16T11:51:20.757Z,125
2018-12-16T11:52:32.285Z,125
2018-12-16T11:53:42.364Z,125
2018-12-16T11:54:52.686Z,125
2018-12-16T11:56:02.261Z,120
2018-12-16T11:57:12.351Z,115
2018-12-16T11:58:22.584Z,120
2018-12-16T11:59:32.899Z,130
2018-12-16T12:00:42.725Z,125
2018-12-16T12:01:53.008Z,120
2018-12-16T12:03:03.069Z,115
2018-12-16T12:04:13.141Z,115
2018-12-16T12:05:23.205Z,115
2018-12-16T12:06:33.339Z,110
2018-12-16T12:07:43.422Z,105
2018-12-16T12:08:53.501Z,105
2018-12-16T12:10:04.211Z,105
2018-12-16T12:11:15.291Z,105
2018-12-16T12:12:26.403Z,110
2018-12-16T12:13:38.065Z,110
2018-12-16T12:14:50.051Z,115
2018-12-16T12:16:00.380Z,125
2018-12-16T12:17:11.134Z,130
2018-12-16T12:18:20.958Z,140
2018-12-16T12:19:31.047Z,150
2018-12-16T12:20:41.188Z,170
2018-12-16T12:21:51.277Z,145
2018-12-16T12:23:01.312Z,160
2018-12-16T12:24:11.421Z,180
2018-12-16T12:25:27.216Z,160
2018-12-16T12:26:37.341Z,140
2018-12-16T12:27:47.472Z,135
2018-12-16T12:28:57.542Z,120
2018-12-16T12:30:08.716Z,105
2018-12-16T12:31:18.544Z,95
2018-12-16T12:32:28.634Z,85
2018-12-16T12:33:38.753Z,85
2018-12-16T12:34:48.858Z,90
2018-12-16T12:35:58.937Z,95
2018-12-16T12:37:09.011Z,90
2018-12-16T12:38:19.089Z,80
2018-12-16T12:39:28.939Z,80
2018-12-16T12:40:39.009Z,85
2018-12-16T12:41:49.119Z,90
2018-12-16T12:42:59.218Z,90
2018-12-16T12:44:09.090Z,85
2018-12-16T12:45:19.258Z,80
2018-12-16T12:46:29.323Z,80
2018-12-16T12:47:39.188Z,80
2018-12-16T12:48:49.452Z,80
2018-12-16T12:49:59.813Z,90
2018-12-16T12:51:10.946Z,95
2018-12-16T12:52:20.753Z,95
2018-12-16T12:53:30.291Z,100
2018-12-16T12:54:40.397Z,105
2018-12-16T12:55:50.479Z,110
2018-12-16T12:57:00.630Z,100
2018-12-16T12:58:10.702Z,110
2018-12-16T12:59:20.594Z,95
2018-12-16T13:00:30.395Z,85
2018-12-16T13:01:40.468Z,75
2018-12-16T13:02:50.850Z,70
2018-12-16T13:04:02.096Z,70
2018-12-16T13:05:12.173Z,75
2018-12-16T13:06:22.318Z,75
2018-12-16T13:07:32.385Z,75
2018-12-16T13:08:42.547Z,75
2018-12-16T13:09:52.668Z,75
2018-12-16T13:11:03.636Z,75
2018-12-16T13:12:13.699Z,75
2018-12-16T13:13:23.769Z,75
2018-12-16T13:14:33.870Z,75
2018-12-16T13:15:43.976Z,75
2018-12-16T13:16:54.295Z,70
2018-12-16T13:18:05.143Z,70
2018-12-16T13:19:15.210Z,70
2018-12-16T13:20:25.363Z,75
2018-12-16T13:21:35.433Z,70
2018-12-16T13:22:45.509Z,70
2018-12-16T13:23:55.632Z,70
2018-12-16T13:25:06.214Z,75
2018-12-16T13:26:16.361Z,75
2018-12-16T13:27:26.496Z,75
2018-12-16T13:28:36.653Z,80
2018-12-16T13:29:46.718Z,75
2018-12-16T13:30:56.838Z,75
2018-12-16T13:32:06.903Z,80
2018-12-16T13:33:16.971Z,80
2018-12-16T13:34:27.412Z,80
2018-12-16T13:35:37.484Z,80
2018-12-16T13:36:47.878Z,85
2018-12-16T13:37:58.070Z,85
2018-12-16T13:39:08.151Z,85
2018-12-16T13:40:18.350Z,85
2018-12-16T13:41:28.441Z,80
2018-12-16T13:42:38.559Z,80
2018-12-16T13:43:48.704Z,75
2018-12-16T13:44:58.772Z,75
2018-12-16T13:46:08.814Z,70
2018-12-16T13:47:18.956Z,70
2018-12-16T13:48:28.825Z,65
2018-12-16T13:49:38.898Z,60
2018-12-16T13:50:48.956Z,60
2018-12-16T13:51:59.026Z,60
2018-12-16T13:53:09.096Z,60
2018-12-16T13:54:19.220Z,60
2018-12-16T13:55:29.364Z,60
2018-12-16T13:56:39.439Z,60
2018-12-16T13:57:49.395Z,60
2018-12-16T13:58:59.657Z,60
2018-12-16T14:00:10.584Z,65
2018-12-16T14:01:20.817Z,70
2018-12-16T14:02:30.886Z,70
2018-12-16T14:03:40.950Z,70
2018-12-16T14:04:50.764Z,75
2018-12-16T14:06:01.077Z,80
2018-12-16T14:07:11.193Z,80
2018-12-16T14:08:21.272Z,80
2018-12-16T14:09:31.335Z,80
2018-12-16T14:10:41.468Z,75
2018-12-16T14:11:51.539Z,75
2018-12-16T14:13:01.673Z,70
2018-12-16T14:14:11.727Z,65
2018-12-16T14:15:21.806Z,60
2018-12-16T14:16:31.887Z,60
2018-12-16T14:17:41.975Z,55
2018-12-16T14:18:51.895Z,55
2018-12-16T14:20:01.714Z,45
2018-12-16T14:21:11.823Z,45
2018-12-16T14:22:22.142Z,40
2018-12-16T14:23:32.235Z,35
2018-12-16T14:24:42.431Z,35
2018-12-16T14:25:57.813Z,35
2018-12-16T14:27:11.333Z,30
2018-12-16T14:28:21.400Z,30
2018-12-16T14:29:31.559Z,25
2018-12-16T14:30:41.128Z,25
2018-12-16T14:31:51.256Z,20
2018-12-16T14:33:01.333Z,20
2018-12-16T14:34:11.150Z,20
2018-12-16T14:35:21.262Z,15
2018-12-16T14:36:30.835Z,15
2018-12-16T14:37:40.397Z,15
2018-12-16T14:38:50.478Z,15
2018-12-16T14:40:00.387Z,15
2018-12-16T14:41:10.586Z,10
2018-12-16T14:42:20.640Z,10
2018-12-16T14:43:30.455Z,10
2018-12-16T14:44:40.534Z,10
2018-12-16T14:45:50.618Z,10
2018-12-16T14:47:02.206Z,5
2018-12-16T14:48:12.302Z,5
2018-12-16T14:49:21.858Z,5
2018-12-16T14:50:32.003Z,5
2018-12-16T14:51:42.047Z,5
2018-12-16T14:52:52.205Z,5
2018-12-16T14:54:02.282Z,5
2018-12-16T14:55:12.610Z,5
2018-12-16T14:56:22.687Z,0
2018-12-16T14:57:33.024Z,0
2018-12-16T14:58:43.150Z,0
2018-12-16T14:59:53.226Z,0
2018-12-16T15:01:03.306Z,0
2018-12-16T15:02:13.370Z,0
2018-12-16T15:03:23.433Z,0
2018-12-16T15:04:33.586Z,0
2018-12-16T15:05:43.697Z,0
2018-12-16T15:06:53.808Z,0
2018-12-16T15:08:05.256Z,0
2018-12-16T15:09:15.072Z,0
2018-12-16T15:10:25.168Z,0
2018-12-16T15:11:35.227Z,0
2018-12-16T15:12:45.289Z,0
2018-12-16T15:13:55.381Z,0
2018-12-16T15:15:08.142Z,0
2018-12-16T15:16:19.941Z,0
2018-12-16T15:17:29.752Z,0
2018-12-16T15:18:39.824Z,0
2018-12-16T15:19:49.909Z,0
2018-12-16T15:20:59.977Z,0
2018-12-16T15:22:12.240Z,0
2018-12-16T15:23:21.803Z,0
2018-12-16T15:24:31.879Z,0
2018-12-16T15:25:41.414Z,0
2018-12-16T15:26:52.653Z,0
2018-12-16T15:28:03.178Z,0
2018-12-16T15:29:13.001Z,0
2018-12-16T15:30:23.185Z,0
2018-12-16T15:31:33.290Z,0
2018-12-16T15:32:43.410Z,0
2018-12-16T15:33:53.514Z,0
2018-12-16T15:35:03.733Z,0
2018-12-16T15:36:13.540Z,0
2018-12-16T15:37:23.787Z,0
2018-12-16T15:38:33.874Z,0
2018-12-16T15:39:43.966Z,0
2018-12-16T15:40:54.058Z,0
2018-12-16T15:42:04.137Z,0
2018-12-16T15:43:14.276Z,0
2018-12-16T15:44:24.105Z,0
2018-12-16T15:45:34.276Z,0
2018-12-16T15:46:44.133Z,0
2018-12-16T15:47:53.963Z,0
2018-12-16T15:49:04.095Z,0
2018-12-16T15:50:14.171Z,0
2018-12-16T15:51:24.258Z,0
2018-12-16T15:52:34.146Z,0
2018-12-16T15:53:44.237Z,0
2018-12-16T15:54:54.356Z,0
2018-12-16T15:56:11.661Z,0
2018-12-16T15:57:21.829Z,0
2018-12-16T15:58:31.647Z,0
2018-12-16T15:59:41.700Z,0
2018-12-16T16:00:51.771Z,0
2018-12-16T16:02:01.840Z,0
2018-12-16T16:03:11.943Z,0
2018-12-16T16:04:22.009Z,0
2018-12-16T16:05:32.114Z,0
2018-12-16T16:06:41.945Z,0
2018-12-16T16:07:51.783Z,0
2018-12-16T16:09:01.865Z,0
2018-12-16T16:10:13.014Z,0
2018-12-16T16:11:22.938Z,0
2018-12-16T16:12:33.088Z,0
2018-12-16T16:13:43.171Z,0
2018-12-16T16:14:53.034Z,0
2018-12-16T16:16:05.575Z,0
2018-12-16T16:17:15.396Z,0
2018-12-16T16:18:25.048Z,0
2018-12-16T16:19:35.160Z,0
2018-12-16T16:20:45.236Z,0
2018-12-16T16:21:55.308Z,0
2018-12-16T16:23:06.819Z,0
2018-12-16T16:24:17.091Z,0
2018-12-16T16:25:27.024Z,0
2018-12-16T16:26:37.111Z,0
2018-12-16T16:27:47.334Z,0
2018-12-16T16:28:57.130Z,0
2018-12-16T16:30:07.224Z,0
2018-12-16T16:31:17.320Z,0
2018-12-16T16:32:27.167Z,0
2018-12-16T16:33:37.309Z,0
2018-12-16T16:34:47.452Z,0
2018-12-16T16:35:57.528Z,0
2018-12-16T16:37:07.331Z,0
2018-12-16T16:38:17.416Z,0
2018-12-16T16:39:27.222Z,0
2018-12-16T16:40:37.314Z,0
2018-12-16T16:41:47.456Z,0
2018-12-16T16:42:57.589Z,0
2018-12-16T16:44:07.439Z,0
2018-12-16T16:45:17.539Z,0
2018-12-16T16:46:27.652Z,0
2018-12-16T16:47:37.531Z,0
2018-12-16T16:48:47.357Z,0
2018-12-16T16:49:57.524Z,0
2018-12-16T16:51:07.655Z,0
2018-12-16T16:52:17.483Z,0
2018-12-16T16:53:27.560Z,0
2018-12-16T16:54:37.659Z,0
2018-12-16T16:55:47.460Z,0
2018-12-16T16:56:57.531Z,0
2018-12-16T16:58:10.409Z,0
2018-12-16T16:59:20.285Z,0
2018-12-16T17:00:30.397Z,0
2018-12-16T17:01:40.482Z,0
2018-12-16T17:02:50.571Z,0
2018-12-16T17:04:02.986Z,0
2018-12-16T17:05:13.116Z,0
2018-12-16T17:06:23.238Z,0
2018-12-16T17:07:33.043Z,0
2018-12-16T17:08:43.140Z,0
2018-12-16T17:09:53.272Z,0
2018-12-16T17:11:03.833Z,0
2018-12-16T17:12:13.902Z,0
2018-12-16T17:13:24.077Z,0
2018-12-16T17:14:34.181Z,0
2018-12-16T17:15:44.009Z,0
2018-12-16T17:16:54.127Z,0
2018-12-16T17:18:04.009Z,0
2018-12-16T17:19:14.090Z,0
2018-12-16T17:20:23.902Z,0
2018-12-16T17:21:33.969Z,0
2018-12-16T17:22:43.774Z,0
2018-12-16T17:23:53.973Z,0
2018-12-16T17:25:04.064Z,0
2018-12-16T17:26:14.131Z,0